createdAt,value
2023-05-10T00:01:02.792Z,99651.22
2023-05-10T00:03:07.173Z,99651.66
2023-05-10T00:05:10.419Z,99647.59
2023-05-10T00:07:13.317Z,99651.03
2023-05-10T00:09:16.457Z,99643.56
2023-05-10T00:11:21.572Z,99648.91
2023-05-10T00:13:26.098Z,99646.34
2023-05-10T00:15:31.450Z,99652.06
2023-05-10T00:17:34.382Z,99646.97
2023-05-10T00:19:38.845Z,99639.44
2023-05-10T00:21:41.952Z,99642.09
2023-05-10T00:23:45.015Z,99636.97
2023-05-10T00:25:47.915Z,99647.41
2023-05-10T00:27:51.560Z,99645.47
2023-05-10T00:29:54.527Z,99642.88
2023-05-10T00:31:57.579Z,99646.94
2023-05-10T00:34:00.718Z,99639.59
2023-05-10T00:36:08.379Z,99644.28
2023-05-10T00:38:12.112Z,99642.91
2023-05-10T00:40:16.024Z,99644.94
2023-05-10T00:42:23.478Z,99646.75
2023-05-10T00:44:28.637Z,99650.13
2023-05-10T00:46:32.736Z,99646.75
2023-05-10T00:48:35.908Z,99647.19
2023-05-10T00:50:39.305Z,99651.66
2023-05-10T00:52:45.180Z,99650.16
2023-05-10T00:54:48.670Z,99646.75
2023-05-10T00:56:51.692Z,99657.16
2023-05-10T00:58:54.700Z,99652.63
2023-05-10T01:01:00.282Z,99654.19
2023-05-10T01:03:03.291Z,99649.53
2023-05-10T01:05:07.193Z,99645.81
2023-05-10T01:07:10.094Z,99643.16
2023-05-10T01:09:15.066Z,99644.44
2023-05-10T01:11:18.101Z,99642.94
2023-05-10T01:13:29.214Z,99650.59
2023-05-10T01:15:32.885Z,99647.84
2023-05-10T01:17:36.444Z,99648.25
2023-05-10T01:19:39.461Z,99653.56
2023-05-10T01:21:48.355Z,99653.44
2023-05-10T01:24:17.755Z,99656.75
2023-05-10T01:26:55.039Z,99655.06
2023-05-10T01:29:13.025Z,99654.19
2023-05-10T01:31:25.334Z,99651.03
2023-05-10T01:33:32.719Z,99657.91
2023-05-10T01:35:40.201Z,99654.31
2023-05-10T01:37:44.977Z,99658.75
2023-05-10T01:39:50.245Z,99659.28
2023-05-10T01:41:57.080Z,99660.25
2023-05-10T01:44:06.600Z,99666.44
2023-05-10T01:46:14.905Z,99660.06
2023-05-10T01:48:18.832Z,99667.91
2023-05-10T01:50:28.344Z,99670.66
2023-05-10T01:52:35.150Z,99668.56
2023-05-10T01:54:41.553Z,99672.69
2023-05-10T01:56:46.188Z,99663.34
2023-05-10T01:58:50.885Z,99673.97
2023-05-10T02:00:54.787Z,99675.44
2023-05-10T02:02:57.949Z,99673.44
2023-05-10T02:05:01.534Z,99671.31
2023-05-10T02:07:06.312Z,99672.78
2023-05-10T02:09:10.108Z,99671.00
2023-05-10T02:11:16.975Z,99675.06
2023-05-10T02:13:20.507Z,99672.16
2023-05-10T02:15:25.779Z,99672.91
2023-05-10T02:17:29.711Z,99671.19
2023-05-10T02:19:33.619Z,99679.19
2023-05-10T02:21:37.446Z,99681.84
2023-05-10T02:23:41.928Z,99680.00
2023-05-10T02:25:45.732Z,99679.28
2023-05-10T02:27:49.348Z,99685.13
2023-05-10T02:29:52.906Z,99687.38
2023-05-10T02:31:56.897Z,99682.69
2023-05-10T02:34:01.166Z,99687.03
2023-05-10T02:36:04.930Z,99686.09
2023-05-10T02:38:09.186Z,99679.28
2023-05-10T02:40:14.730Z,99688.66
2023-05-10T02:42:19.774Z,99690.78
2023-05-10T02:44:24.583Z,99690.78
2023-05-10T02:46:27.715Z,99686.09
2023-05-10T02:48:33.327Z,99693.75
2023-05-10T02:50:37.652Z,99692.78
2023-05-10T02:52:42.872Z,99689.28
2023-05-10T02:54:48.087Z,99693.41
2023-05-10T02:56:54.851Z,99698.00
2023-05-10T02:58:57.906Z,99698.00
2023-05-10T03:01:02.065Z,99702.66
2023-05-10T03:03:05.467Z,99694.41
2023-05-10T03:05:09.316Z,99700.34
2023-05-10T03:07:12.835Z,99698.22
2023-05-10T03:09:17.297Z,99699.56
2023-05-10T03:11:31.521Z,99701.81
2023-05-10T03:13:44.870Z,99702.78
2023-05-10T03:15:57.894Z,99707.97
2023-05-10T03:18:05.314Z,99699.56
2023-05-10T03:20:12.646Z,99707.44
2023-05-10T03:22:22.262Z,99705.41
2023-05-10T03:24:29.913Z,99712.44
2023-05-10T03:26:35.323Z,99711.56
2023-05-10T03:28:47.947Z,99710.81
2023-05-10T03:30:51.773Z,99710.63
2023-05-10T03:32:55.210Z,99712.44
2023-05-10T03:34:58.174Z,99719.75
2023-05-10T03:37:02.777Z,99720.78
2023-05-10T03:39:07.943Z,99728.59
2023-05-10T03:41:11.031Z,99724.47
2023-05-10T03:43:14.201Z,99714.50
2023-05-10T03:45:18.779Z,99723.44
2023-05-10T03:47:22.021Z,99721.53
2023-05-10T03:49:25.073Z,99736.63
2023-05-10T03:51:29.061Z,99723.22
2023-05-10T03:53:32.298Z,99730.88
2023-05-10T03:55:37.348Z,99731.41
2023-05-10T03:57:40.324Z,99729.16
2023-05-10T03:59:44.030Z,99736.19
2023-05-10T04:01:48.638Z,99733.38
2023-05-10T04:03:51.875Z,99737.88
2023-05-10T04:06:01.575Z,99737.88
2023-05-10T04:08:04.875Z,99747.16
2023-05-10T04:10:08.736Z,99737.75
2023-05-10T04:12:11.981Z,99738.94
2023-05-10T04:14:14.887Z,99744.19
2023-05-10T04:16:17.903Z,99745.53
2023-05-10T04:18:22.153Z,99741.00
2023-05-10T04:20:25.035Z,99740.66
2023-05-10T04:22:28.746Z,99743.66
2023-05-10T04:24:31.957Z,99738.38
2023-05-10T04:26:34.836Z,99746.69
2023-05-10T04:28:37.891Z,99750.72
2023-05-10T04:30:41.420Z,99743.44
2023-05-10T04:32:44.464Z,99747.81
2023-05-10T04:34:48.911Z,99749.28
2023-05-10T04:36:51.875Z,99754.41
2023-05-10T04:38:54.741Z,99749.91
2023-05-10T04:41:06.178Z,99747.59
2023-05-10T04:43:09.423Z,99748.00
2023-05-10T04:45:13.055Z,99748.41
2023-05-10T04:47:17.247Z,99751.41
2023-05-10T04:49:20.319Z,99754.81
2023-05-10T04:51:24.606Z,99753.16
2023-05-10T04:53:27.754Z,99760.53
2023-05-10T04:55:30.736Z,99765.53
2023-05-10T04:57:33.642Z,99761.16
2023-05-10T04:59:38.300Z,99770.94
2023-05-10T05:01:41.702Z,99762.81
2023-05-10T05:03:44.903Z,99768.09
2023-05-10T05:05:48.137Z,99767.53
2023-05-10T05:07:55.176Z,99772.41
2023-05-10T05:09:58.235Z,99776.38
2023-05-10T05:12:01.570Z,99776.25
2023-05-10T05:14:04.470Z,99779.13
2023-05-10T05:16:08.025Z,99778.19
2023-05-10T05:18:11.065Z,99789.63
2023-05-10T05:20:14.769Z,99790.66
2023-05-10T05:22:19.569Z,99786.22
2023-05-10T05:24:24.145Z,99786.78
2023-05-10T05:26:27.459Z,99792.44
2023-05-10T05:28:33.894Z,99796.38
2023-05-10T05:30:36.823Z,99791.88
2023-05-10T05:32:39.766Z,99783.03
2023-05-10T05:34:42.745Z,99786.66
2023-05-10T05:36:45.654Z,99796.22
2023-05-10T05:38:48.722Z,99807.03
2023-05-10T05:40:53.106Z,99806.25
2023-05-10T05:42:56.423Z,99797.28
2023-05-10T05:44:59.379Z,99798.88
2023-05-10T05:47:02.736Z,99798.19
2023-05-10T05:49:06.436Z,99802.50
2023-05-10T05:51:09.335Z,99804.50
2023-05-10T05:53:12.274Z,99800.19
2023-05-10T05:55:15.611Z,99801.06
2023-05-10T05:57:20.030Z,99792.22
2023-05-10T05:59:22.974Z,99795.78
2023-05-10T06:01:25.819Z,99797.91
2023-05-10T06:03:28.926Z,99795.84
2023-05-10T06:05:31.916Z,99800.78
2023-05-10T06:07:34.807Z,99806.91
2023-05-10T06:09:38.088Z,99814.31
2023-05-10T06:11:40.995Z,99820.72
2023-05-10T06:13:45.590Z,99832.41
2023-05-10T06:15:48.759Z,99836.34
2023-05-10T06:17:52.020Z,99840.69
2023-05-10T06:19:55.295Z,99842.47
2023-05-10T06:21:58.278Z,99842.78
2023-05-10T06:24:01.155Z,99840.47
2023-05-10T06:26:04.181Z,99838.56
2023-05-10T06:28:07.092Z,99836.88
2023-05-10T06:30:14.221Z,99839.84
2023-05-10T06:32:17.232Z,99838.81
2023-05-10T06:34:20.269Z,99840.53
2023-05-10T06:36:24.403Z,99846.03
2023-05-10T06:38:27.390Z,99843.50
2023-05-10T06:40:30.512Z,99847.09
2023-05-10T06:42:33.523Z,99844.03
2023-05-10T06:44:36.745Z,99847.47
2023-05-10T06:46:41.106Z,99847.03
2023-05-10T06:48:44.291Z,99839.06
2023-05-10T06:50:47.306Z,99845.22
2023-05-10T06:52:52.397Z,99849.06
2023-05-10T06:54:56.000Z,99847.78
2023-05-10T06:56:58.848Z,99845.44
2023-05-10T06:59:01.767Z,99852.25
2023-05-10T07:01:06.273Z,99852.13
2023-05-10T07:03:10.877Z,99855.63
2023-05-10T07:05:14.005Z,99851.78
2023-05-10T07:07:17.376Z,99858.81
2023-05-10T07:09:20.516Z,99859.88
2023-05-10T07:11:23.583Z,99861.69
2023-05-10T07:13:26.848Z,99866.81
2023-05-10T07:15:30.080Z,99868.50
2023-05-10T07:17:34.383Z,99864.25
2023-05-10T07:19:38.921Z,99874.13
2023-05-10T07:21:44.118Z,99871.03
2023-05-10T07:23:47.318Z,99867.13
2023-05-10T07:25:50.875Z,99862.28
2023-05-10T07:27:53.727Z,99865.78
2023-05-10T07:29:57.569Z,99861.38
2023-05-10T07:32:00.582Z,99855.00
2023-05-10T07:34:03.567Z,99856.88
2023-05-10T07:36:08.293Z,99848.78
2023-05-10T07:38:12.029Z,99841.31
2023-05-10T07:40:15.081Z,99829.84
2023-05-10T07:42:18.021Z,99831.44
2023-05-10T07:44:21.379Z,99813.31
2023-05-10T07:46:24.556Z,99821.97
2023-05-10T07:48:27.952Z,99813.66
2023-05-10T07:50:31.467Z,99810.22
2023-05-10T07:52:36.046Z,99810.31
2023-05-10T07:54:39.236Z,99797.84
2023-05-10T07:56:46.521Z,99798.16
2023-05-10T07:58:49.572Z,99791.25
2023-05-10T08:00:52.762Z,99798.81
2023-05-10T08:02:56.091Z,99793.28
2023-05-10T08:04:59.358Z,99798.56
2023-05-10T08:07:02.512Z,99803.75
2023-05-10T08:09:07.297Z,99799.19
2023-05-10T08:11:10.284Z,99800.59
2023-05-10T08:13:13.399Z,99805.59
2023-05-10T08:15:17.238Z,99808.78
2023-05-10T08:17:22.066Z,99818.19
2023-05-10T08:19:26.530Z,99815.38
2023-05-10T08:21:29.801Z,99821.28
2023-05-10T08:23:34.234Z,99817.47
2023-05-10T08:25:38.601Z,99816.19
2023-05-10T08:27:41.767Z,99825.09
2023-05-10T08:29:50.232Z,99824.09
2023-05-10T08:31:53.901Z,99828.63
2023-05-10T08:33:57.164Z,99819.97
2023-05-10T08:36:00.338Z,99827.84
2023-05-10T08:38:03.499Z,99823.38
2023-05-10T08:40:07.655Z,99821.47
2023-05-10T08:42:13.554Z,99821.69
2023-05-10T08:44:19.181Z,99828.66
2023-05-10T08:46:23.702Z,99818.00
2023-05-10T08:48:27.181Z,99823.41
2023-05-10T08:50:30.435Z,99831.25
2023-05-10T08:52:35.017Z,99829.09
2023-05-10T08:54:40.353Z,99844.25
2023-05-10T08:56:43.392Z,99845.38
2023-05-10T08:58:48.449Z,99842.59
2023-05-10T09:00:53.355Z,99840.19
2023-05-10T09:02:56.793Z,99863.81
2023-05-10T09:05:01.510Z,99853.50
2023-05-10T09:07:04.657Z,99861.53
2023-05-10T09:09:07.961Z,99862.22
2023-05-10T09:11:11.316Z,99853.19
2023-05-10T09:13:16.112Z,99863.13
2023-05-10T09:15:20.994Z,99851.31
2023-05-10T09:17:26.592Z,99865.75
2023-05-10T09:19:32.717Z,99857.50
2023-05-10T09:21:37.737Z,99869.78
2023-05-10T09:23:40.695Z,99854.97
2023-05-10T09:25:44.160Z,99865.19
2023-05-10T09:27:48.597Z,99863.13
2023-05-10T09:29:55.523Z,99862.72
2023-05-10T09:31:59.998Z,99863.47
2023-05-10T09:34:03.109Z,99859.44
2023-05-10T09:36:09.448Z,99865.25
2023-05-10T09:38:13.793Z,99857.78
2023-05-10T09:40:19.714Z,99858.84
2023-05-10T09:42:22.825Z,99859.94
2023-05-10T09:44:27.673Z,99855.25
2023-05-10T09:46:30.901Z,99863.75
2023-05-10T09:48:35.371Z,99857.00
2023-05-10T09:50:38.707Z,99864.63
2023-05-10T09:52:49.866Z,99866.63
2023-05-10T09:54:55.476Z,99866.88
2023-05-10T09:56:58.566Z,99868.84
2023-05-10T09:59:04.742Z,99863.50
2023-05-10T10:01:13.303Z,99862.09
2023-05-10T10:03:17.748Z,99850.78
2023-05-10T10:05:22.300Z,99861.03
2023-05-10T10:07:27.916Z,99859.25
2023-05-10T10:09:31.080Z,99860.28
2023-05-10T10:11:34.319Z,99856.16
2023-05-10T10:13:37.344Z,99863.50
2023-05-10T10:15:40.707Z,99863.88
2023-05-10T10:17:45.621Z,99860.09
2023-05-10T10:19:50.689Z,99859.09
2023-05-10T10:21:55.098Z,99860.19
2023-05-10T10:23:58.208Z,99856.56
2023-05-10T10:26:02.042Z,99865.25
2023-05-10T10:28:19.700Z,99863.88
2023-05-10T10:30:28.350Z,99855.41
2023-05-10T10:32:39.846Z,99860.25
2023-05-10T10:34:43.202Z,99848.91
2023-05-10T10:36:48.568Z,99852.47
2023-05-10T10:39:03.163Z,99858.47
2023-05-10T10:41:13.856Z,99856.50
2023-05-10T10:43:27.638Z,99863.72
2023-05-10T10:45:31.994Z,99864.22
2023-05-10T10:47:34.941Z,99858.09
2023-05-10T10:49:46.310Z,99859.81
2023-05-10T10:52:16.852Z,99863.91
2023-05-10T10:54:30.707Z,99858.16
2023-05-10T10:56:35.769Z,99854.28
2023-05-10T10:58:40.983Z,99857.13
2023-05-10T11:00:46.422Z,99853.63
2023-05-10T11:02:52.920Z,99867.91
2023-05-10T11:04:56.184Z,99859.81
2023-05-10T11:07:20.684Z,99861.81
2023-05-10T11:09:26.914Z,99867.88
2023-05-10T11:11:31.587Z,99872.25
2023-05-10T11:13:36.522Z,99871.31
2023-05-10T11:15:41.695Z,99873.63
2023-05-10T11:17:44.868Z,99892.19
2023-05-10T11:20:08.592Z,99880.97
2023-05-10T11:22:15.266Z,99887.84
2023-05-10T11:24:20.065Z,99892.63
2023-05-10T11:26:26.514Z,99887.88
2023-05-10T11:28:29.872Z,99879.16
2023-05-10T11:30:33.605Z,99888.72
2023-05-10T11:32:38.976Z,99878.00
2023-05-10T11:34:42.246Z,99891.34
2023-05-10T11:36:45.411Z,99900.56
2023-05-10T11:38:48.652Z,99891.75
2023-05-10T11:40:54.406Z,99892.59
2023-05-10T11:42:59.575Z,99900.47
2023-05-10T11:45:03.195Z,99897.75
2023-05-10T11:47:07.040Z,99900.81
2023-05-10T11:49:10.174Z,99910.66
2023-05-10T11:51:14.203Z,99909.56
2023-05-10T11:53:17.208Z,99910.56
2023-05-10T11:55:20.759Z,99914.88
2023-05-10T11:57:29.150Z,99921.50
2023-05-10T11:59:34.776Z,99921.13
2023-05-10T12:01:38.793Z,99919.47
2023-05-10T12:03:42.843Z,99923.75
2023-05-10T12:05:45.912Z,99932.44
2023-05-10T12:07:49.308Z,99937.03
2023-05-10T12:10:13.112Z,99938.09
2023-05-10T12:12:18.531Z,99928.66
2023-05-10T12:14:22.621Z,99934.88
2023-05-10T12:16:29.125Z,99940.66
2023-05-10T12:18:34.420Z,99934.66
2023-05-10T12:20:37.648Z,99937.16
2023-05-10T12:22:41.499Z,99948.13
2023-05-10T12:24:44.663Z,99940.09
2023-05-10T12:26:49.332Z,99941.91
2023-05-10T12:28:52.992Z,99943.22
2023-05-10T12:30:56.794Z,99943.63
2023-05-10T12:33:11.181Z,99945.28
2023-05-10T12:35:15.343Z,99939.84
2023-05-10T12:37:18.315Z,99933.75
2023-05-10T12:39:21.265Z,99945.56
2023-05-10T12:41:24.586Z,99943.78
2023-05-10T12:43:27.890Z,99939.50
2023-05-10T12:45:31.665Z,99943.16
2023-05-10T12:47:35.070Z,99948.41
2023-05-10T12:49:40.915Z,99950.22
2023-05-10T12:51:45.650Z,99951.66
2023-05-10T12:53:49.718Z,99954.69
2023-05-10T12:55:53.253Z,99950.13
2023-05-10T12:57:57.375Z,99956.53
2023-05-10T13:00:00.818Z,99954.00
2023-05-10T13:02:03.828Z,99957.19
2023-05-10T13:04:09.565Z,99964.75
2023-05-10T13:06:15.836Z,99962.66
2023-05-10T13:08:18.981Z,99959.56
2023-05-10T13:10:23.540Z,99959.59
2023-05-10T13:12:26.624Z,99959.25
2023-05-10T13:14:30.191Z,99966.47
2023-05-10T13:16:33.754Z,99964.94
2023-05-10T13:18:36.895Z,99962.47
2023-05-10T13:20:40.701Z,99964.44
2023-05-10T13:22:45.320Z,99959.41
2023-05-10T13:24:48.657Z,99953.06
2023-05-10T13:26:51.925Z,99947.47
2023-05-10T13:28:56.514Z,99953.81
2023-05-10T13:31:02.094Z,99948.56
2023-05-10T13:33:06.308Z,99945.97
2023-05-10T13:35:12.035Z,99952.94
2023-05-10T13:37:16.035Z,99955.53
2023-05-10T13:39:20.438Z,99956.47
2023-05-10T13:41:23.741Z,99949.44
2023-05-10T13:43:27.475Z,99949.13
2023-05-10T13:45:31.624Z,99942.94
2023-05-10T13:47:34.540Z,99953.03
2023-05-10T13:49:37.497Z,99959.25
2023-05-10T13:51:40.480Z,99951.81
2023-05-10T13:53:43.849Z,99947.59
2023-05-10T13:55:48.401Z,99960.63
2023-05-10T13:57:51.419Z,99952.28
2023-05-10T13:59:55.919Z,99949.00
2023-05-10T14:02:00.807Z,99957.47
2023-05-10T14:04:04.511Z,99954.81
2023-05-10T14:06:08.406Z,99952.97
2023-05-10T14:08:11.909Z,99947.13
2023-05-10T14:10:14.976Z,99952.34
2023-05-10T14:12:19.751Z,99948.13
2023-05-10T14:14:22.802Z,99944.06
2023-05-10T14:16:25.914Z,99952.41
2023-05-10T14:18:29.307Z,99950.44
2023-05-10T14:20:34.948Z,99944.38
2023-05-10T14:22:40.454Z,99943.44
2023-05-10T14:24:47.717Z,99941.34
2023-05-10T14:26:54.712Z,99944.22
2023-05-10T14:29:00.030Z,99931.34
2023-05-10T14:31:03.415Z,99939.28
2023-05-10T14:33:08.797Z,99942.78
2023-05-10T14:35:13.396Z,99941.66
2023-05-10T14:37:16.710Z,99932.72
2023-05-10T14:39:20.893Z,99941.63
2023-05-10T14:41:25.757Z,99935.72
2023-05-10T14:43:29.240Z,99938.06
2023-05-10T14:45:33.913Z,99940.31
2023-05-10T14:47:38.358Z,99931.28
2023-05-10T14:49:42.179Z,99944.31
2023-05-10T14:51:46.176Z,99932.31
2023-05-10T14:53:49.580Z,99939.53
2023-05-10T15:00:06.322Z,99934.44
2023-05-10T15:02:11.850Z,99936.00
2023-05-10T15:04:17.350Z,99940.06
2023-05-10T15:06:25.988Z,99931.91
2023-05-10T15:08:29.178Z,99937.28
2023-05-10T15:10:34.463Z,99929.91
2023-05-10T15:12:37.668Z,99930.16
2023-05-10T15:14:40.702Z,99922.50
2023-05-10T15:16:43.752Z,99917.97
2023-05-10T15:18:48.097Z,99925.72
2023-05-10T15:20:51.591Z,99920.81
2023-05-10T15:22:54.912Z,99921.31
2023-05-10T15:24:58.114Z,99918.22
2023-05-10T15:27:01.021Z,99920.03
2023-05-10T15:29:04.066Z,99923.00
2023-05-10T15:31:07.192Z,99919.56
2023-05-10T15:33:11.898Z,99918.22
2023-05-10T15:35:16.308Z,99921.06
2023-05-10T15:37:19.574Z,99925.03
2023-05-10T15:39:22.519Z,99925.22
2023-05-10T15:41:25.695Z,99927.19
2023-05-10T15:43:28.631Z,99924.34
2023-05-10T15:45:31.616Z,99924.50
2023-05-10T15:47:35.237Z,99919.91
2023-05-10T15:49:38.455Z,99923.91
2023-05-10T15:51:43.267Z,99926.03
2023-05-10T15:53:56.832Z,99928.22
2023-05-10T15:56:09.321Z,99929.59
2023-05-10T15:58:12.794Z,99934.16
2023-05-10T16:00:16.933Z,99933.09
2023-05-10T16:02:19.817Z,99933.66
2023-05-10T16:04:22.718Z,99932.94
2023-05-10T16:06:25.574Z,99942.25
2023-05-10T16:08:30.748Z,99937.59
2023-05-10T16:10:34.370Z,99951.44
2023-05-10T16:12:37.315Z,99950.31
2023-05-10T16:14:40.208Z,99950.88
2023-05-10T16:16:43.379Z,99948.56
2023-05-10T16:18:46.476Z,99951.38
2023-05-10T16:20:49.542Z,99955.81
2023-05-10T16:22:52.542Z,99956.78
2023-05-10T16:24:58.015Z,99956.25
2023-05-10T16:27:01.065Z,99957.34
2023-05-10T16:29:04.149Z,99964.00
2023-05-10T16:31:07.139Z,99963.56
2023-05-10T16:33:10.167Z,99966.69
2023-05-10T16:35:13.241Z,99960.91
2023-05-10T16:37:16.341Z,99965.56
2023-05-10T16:39:19.307Z,99963.44
2023-05-10T16:41:24.656Z,99969.09
2023-05-10T16:43:28.716Z,99963.16
2023-05-10T16:49:43.502Z,99966.41
2023-05-10T16:51:46.724Z,99973.53
2023-05-10T16:53:49.853Z,99981.34
2023-05-10T16:55:52.836Z,99974.59
2023-05-10T16:58:00.924Z,99978.34
2023-05-10T17:00:04.496Z,99974.53
2023-05-10T17:02:07.962Z,99978.19
2023-05-10T17:04:11.044Z,99990.00
2023-05-10T17:06:14.353Z,99983.19
2023-05-10T17:08:17.507Z,99979.00
2023-05-10T17:10:21.055Z,99982.25
2023-05-10T17:12:24.708Z,99994.78
2023-05-10T17:14:29.058Z,99991.66
2023-05-10T17:16:32.105Z,99984.72
2023-05-10T17:18:35.463Z,99994.06
2023-05-10T17:20:39.090Z,100002.25
2023-05-10T17:22:42.758Z,99995.56
2023-05-10T17:24:46.698Z,99993.84
2023-05-10T17:26:49.666Z,99998.84
2023-05-10T17:28:54.485Z,99997.81
2023-05-10T17:30:59.689Z,99998.41
2023-05-10T17:33:02.771Z,100004.56
2023-05-10T17:35:06.855Z,100011.81
2023-05-10T17:37:10.232Z,100006.31
2023-05-10T17:39:15.106Z,100010.13
2023-05-10T17:41:21.802Z,100010.63
2023-05-10T17:43:26.090Z,100018.97
2023-05-10T17:45:29.056Z,100018.69
2023-05-10T17:47:36.377Z,100017.69
2023-05-10T17:49:40.853Z,100024.16
2023-05-10T17:51:48.079Z,100020.09
2023-05-10T17:53:51.362Z,100028.00
2023-05-10T17:55:58.067Z,100022.66
2023-05-10T17:58:01.802Z,100029.69
2023-05-10T18:00:08.720Z,100029.72
2023-05-10T18:02:11.607Z,100037.16
2023-05-10T18:04:16.229Z,100037.91
2023-05-10T18:06:19.661Z,100042.19
2023-05-10T18:08:26.991Z,100054.44
2023-05-10T18:10:30.527Z,100059.34
2023-05-10T18:12:33.916Z,100057.41
2023-05-10T18:14:41.194Z,100062.25
2023-05-10T18:16:45.063Z,100053.97
2023-05-10T18:18:48.166Z,100062.44
2023-05-10T18:20:56.693Z,100066.56
2023-05-10T18:23:00.626Z,100067.00
2023-05-10T18:25:03.828Z,100070.63
2023-05-10T18:27:09.844Z,100079.84
2023-05-10T18:29:13.057Z,100081.56
2023-05-10T18:31:16.532Z,100085.59
2023-05-10T18:33:19.913Z,100088.69
2023-05-10T18:35:25.004Z,100095.56
2023-05-10T18:37:30.116Z,100097.22
2023-05-10T18:39:33.376Z,100101.94
2023-05-10T18:41:36.402Z,100104.09
2023-05-10T18:43:39.363Z,100109.16
2023-05-10T18:45:42.260Z,100114.53
2023-05-10T18:47:45.249Z,100115.38
2023-05-10T18:49:48.777Z,100116.56
2023-05-10T18:51:52.782Z,100122.59
2023-05-10T18:53:57.054Z,100118.94
2023-05-10T18:56:00.512Z,100121.94
2023-05-10T18:58:03.565Z,100130.59
2023-05-10T19:00:08.606Z,100136.16
2023-05-10T19:02:11.753Z,100143.41
2023-05-10T19:04:14.838Z,100149.16
2023-05-10T19:06:19.434Z,100156.09
2023-05-10T19:08:22.384Z,100164.50
2023-05-10T19:10:27.579Z,100166.66
2023-05-10T19:12:31.583Z,100164.09
2023-05-10T19:14:36.231Z,100169.22
2023-05-10T19:16:40.523Z,100169.44
2023-05-10T19:18:44.151Z,100173.78
2023-05-10T19:20:48.021Z,100168.78
2023-05-10T19:23:08.348Z,100182.03
2023-05-10T19:25:13.130Z,100185.16
2023-05-10T19:27:17.597Z,100192.47
2023-05-10T19:29:20.613Z,100193.75
2023-05-10T19:31:23.539Z,100194.34
2023-05-10T19:33:26.679Z,100199.72
2023-05-10T19:35:29.736Z,100212.72
2023-05-10T19:37:32.878Z,100203.88
2023-05-10T19:39:36.028Z,100206.72
2023-05-10T19:41:39.018Z,100210.84
2023-05-10T19:43:43.738Z,100211.50
2023-05-10T19:45:46.792Z,100216.75
2023-05-10T19:47:50.149Z,100217.59
2023-05-10T19:49:53.213Z,100213.94
2023-05-10T19:51:56.401Z,100210.97
2023-05-10T19:54:00.518Z,100215.06
2023-05-10T19:56:06.667Z,100211.75
2023-05-10T19:58:09.852Z,100212.41
2023-05-10T20:00:15.950Z,100216.25
2023-05-10T20:02:18.929Z,100205.44
2023-05-10T20:04:23.215Z,100212.53
2023-05-10T20:06:27.434Z,100211.66
2023-05-10T20:08:31.040Z,100214.47
2023-05-10T20:10:34.961Z,100211.84
2023-05-10T20:12:38.058Z,100208.19
2023-05-10T20:14:41.004Z,100209.28
2023-05-10T20:16:45.717Z,100212.28
2023-05-10T20:18:48.762Z,100212.22
2023-05-10T20:20:55.073Z,100205.00
2023-05-10T20:22:58.006Z,100208.75
2023-05-10T20:25:00.971Z,100206.72
2023-05-10T20:27:04.653Z,100212.22
2023-05-10T20:29:09.734Z,100213.72
2023-05-10T20:31:13.751Z,100205.09
2023-05-10T20:33:19.157Z,100206.28
2023-05-10T20:35:22.178Z,100210.88
2023-05-10T20:37:27.497Z,100213.03
2023-05-10T20:39:30.471Z,100214.28
2023-05-10T20:41:33.397Z,100212.38
2023-05-10T20:43:36.555Z,100215.16
2023-05-10T20:45:39.564Z,100210.53
2023-05-10T20:47:42.847Z,100205.41
2023-05-10T20:49:47.394Z,100203.50
2023-05-10T20:51:51.670Z,100204.22
2023-05-10T20:53:57.151Z,100203.81
2023-05-10T20:56:00.212Z,100211.31
2023-05-10T20:58:04.984Z,100206.66
2023-05-10T21:00:12.146Z,100205.44
2023-05-10T21:02:15.291Z,100207.78
2023-05-10T21:04:18.310Z,100199.88
2023-05-10T21:06:22.922Z,100196.53
2023-05-10T21:08:28.060Z,100195.53
2023-05-10T21:10:31.593Z,100195.69
2023-05-10T21:12:34.807Z,100202.50
2023-05-10T21:14:37.805Z,100202.53
2023-05-10T21:16:40.824Z,100201.50
2023-05-10T21:18:44.060Z,100210.31
2023-05-10T21:20:46.996Z,100209.94
2023-05-10T21:22:51.826Z,100206.97
2023-05-10T21:24:57.271Z,100210.66
2023-05-10T21:27:01.799Z,100208.00
2023-05-10T21:29:09.566Z,100202.84
2023-05-10T21:31:14.944Z,100214.00
2023-05-10T21:33:17.932Z,100216.28
2023-05-10T21:35:21.840Z,100207.75
2023-05-10T21:37:25.198Z,100218.84
2023-05-10T21:39:29.568Z,100208.88
2023-05-10T21:41:32.590Z,100205.41
2023-05-10T21:43:37.894Z,100207.97
2023-05-10T21:45:41.314Z,100210.53
2023-05-10T21:48:07.127Z,100204.84
2023-05-10T21:50:12.130Z,100204.75
2023-05-10T21:52:15.528Z,100200.75
2023-05-10T21:54:20.526Z,100202.22
2023-05-10T21:56:32.191Z,100202.44
2023-05-10T21:58:35.667Z,100207.25
2023-05-10T22:00:41.484Z,100210.19
2023-05-10T22:02:44.502Z,100211.81
2023-05-10T22:04:49.093Z,100216.38
2023-05-10T22:06:52.113Z,100208.34
2023-05-10T22:08:55.050Z,100212.75
2023-05-10T22:10:58.093Z,100216.28
2023-05-10T22:13:02.325Z,100214.84
2023-05-10T22:15:10.233Z,100216.84
2023-05-10T22:17:15.100Z,100216.00
2023-05-10T22:19:18.402Z,100220.16
2023-05-10T22:21:21.434Z,100212.69
2023-05-10T22:23:25.153Z,100219.69
2023-05-10T22:25:28.528Z,100228.41
2023-05-10T22:27:31.439Z,100223.97
2023-05-10T22:29:36.252Z,100218.09
2023-05-10T22:31:39.333Z,100223.28
2023-05-10T22:33:42.381Z,100219.50
2023-05-10T22:35:45.378Z,100222.81
2023-05-10T22:37:48.403Z,100225.47
2023-05-10T22:39:51.753Z,100222.50
2023-05-10T22:41:55.239Z,100221.22
2023-05-10T22:43:58.277Z,100225.28
2023-05-10T22:46:02.634Z,100229.38
2023-05-10T22:48:06.427Z,100225.00
2023-05-10T22:50:10.359Z,100230.03
2023-05-10T22:52:13.576Z,100233.53
2023-05-10T22:54:16.686Z,100229.09
2023-05-10T22:56:20.131Z,100236.88
2023-05-10T22:58:23.188Z,100225.13
2023-05-10T23:00:26.476Z,100231.38
2023-05-10T23:02:32.128Z,100231.47
2023-05-10T23:04:35.197Z,100235.44
2023-05-10T23:06:39.495Z,100232.88
2023-05-10T23:08:43.267Z,100244.75
2023-05-10T23:10:46.340Z,100240.31
2023-05-10T23:12:49.309Z,100233.25
2023-05-10T23:14:52.282Z,100239.91
2023-05-10T23:16:55.186Z,100247.41
2023-05-10T23:19:00.031Z,100235.84
2023-05-10T23:21:03.314Z,100238.97
2023-05-10T23:23:06.882Z,100233.25
2023-05-10T23:25:11.111Z,100237.53
2023-05-10T23:27:14.510Z,100235.44
2023-05-10T23:29:17.833Z,100236.41
2023-05-10T23:31:20.807Z,100236.31
2023-05-10T23:33:24.277Z,100233.09
2023-05-10T23:35:28.849Z,100236.31
2023-05-10T23:37:31.840Z,100233.66
2023-05-10T23:39:34.806Z,100233.19
2023-05-10T23:41:38.192Z,100231.19
2023-05-10T23:43:41.099Z,100235.34
2023-05-10T23:45:44.051Z,100236.97
2023-05-10T23:47:46.925Z,100237.44
2023-05-10T23:49:51.245Z,100225.94
2023-05-10T23:51:55.928Z,100225.78
2023-05-10T23:53:59.086Z,100226.50
2023-05-10T23:56:04.444Z,100229.28
2023-05-10T23:58:07.406Z,100223.56
